createdAt,value
2018-06-01T00:02:15.974Z,53.90
2018-06-01T00:04:44.227Z,56.40
2018-06-01T00:07:13.283Z,54.70
2018-06-01T00:09:41.548Z,54.70
2018-06-01T00:12:09.789Z,54.80
2018-06-01T00:14:38.045Z,53.60
2018-06-01T00:17:07.101Z,58.60
2018-06-01T00:19:35.391Z,58.50
2018-06-01T00:22:03.679Z,68.00
2018-06-01T00:24:31.934Z,55.90
2018-06-01T00:27:00.178Z,57.00
2018-06-01T00:29:28.479Z,56.60
2018-06-01T00:31:56.763Z,56.10
2018-06-01T00:34:25.013Z,55.90
2018-06-01T00:36:53.314Z,55.40
2018-06-01T00:39:21.559Z,59.60
2018-06-01T00:41:49.858Z,58.60
2018-06-01T00:44:18.875Z,67.50
2018-06-01T00:46:47.173Z,66.90
2018-06-01T00:49:16.179Z,61.10
2018-06-01T00:51:44.441Z,61.10
2018-06-01T00:54:13.502Z,65.60
2018-06-01T00:56:41.779Z,65.30
2018-06-01T00:59:10.028Z,69.50
2018-06-01T01:01:38.326Z,63.40
2018-06-01T01:04:06.622Z,68.70
2018-06-01T01:06:34.988Z,59.00
2018-06-01T01:09:03.276Z,58.20
2018-06-01T01:11:31.551Z,64.30
2018-06-01T01:13:59.854Z,58.20
2018-06-01T01:16:28.089Z,58.60
2018-06-01T01:18:57.582Z,57.60
2018-06-01T01:21:25.829Z,57.70
2018-06-01T01:23:55.043Z,56.50
2018-06-01T01:26:23.344Z,56.50
2018-06-01T01:28:51.589Z,56.40
2018-06-01T01:31:20.710Z,56.20
2018-06-01T01:33:48.985Z,56.20
2018-06-01T01:36:17.285Z,56.30
2018-06-01T01:38:46.315Z,56.30
2018-06-01T01:41:16.060Z,58.30
2018-06-01T01:43:44.307Z,57.70
2018-06-01T01:46:13.332Z,56.00
2018-06-01T01:48:41.637Z,56.00
2018-06-01T01:51:09.920Z,61.40
2018-06-01T01:53:38.168Z,56.20
2018-06-01T01:56:06.427Z,56.00
2018-06-01T01:58:34.697Z,60.90
2018-06-01T02:01:03.706Z,58.50
2018-06-01T02:03:32.023Z,58.60
2018-06-01T02:06:00.255Z,55.80
2018-06-01T02:08:28.516Z,56.10
2018-06-01T02:10:57.584Z,55.60
2018-06-01T02:13:25.838Z,55.60
2018-06-01T02:15:54.564Z,56.00
2018-06-01T02:18:22.884Z,56.40
2018-06-01T02:20:51.862Z,56.00
2018-06-01T02:23:20.107Z,59.40
2018-06-01T02:25:48.364Z,55.80
2018-06-01T02:28:16.650Z,55.80
2018-06-01T02:30:44.934Z,56.50
2018-06-01T02:33:13.223Z,55.30
2018-06-01T02:35:41.513Z,64.00
2018-06-01T02:38:10.560Z,56.30
2018-06-01T02:40:38.818Z,56.30
2018-06-01T02:43:07.059Z,55.80
2018-06-01T02:45:36.090Z,55.30
2018-06-01T02:48:04.328Z,55.30
2018-06-01T02:50:33.394Z,55.20
2018-06-01T02:53:01.709Z,55.20
2018-06-01T02:55:30.951Z,55.30
2018-06-01T02:57:59.200Z,55.30
2018-06-01T03:00:27.513Z,54.80
2018-06-01T03:02:55.780Z,54.80
2018-06-01T03:05:24.067Z,54.60
2018-06-01T03:07:52.366Z,54.50
2018-06-01T03:10:20.647Z,54.40
2018-06-01T03:12:48.943Z,54.40
2018-06-01T03:15:18.834Z,54.40
2018-06-01T03:17:47.084Z,54.40
2018-06-01T03:20:15.363Z,54.20
2018-06-01T03:22:43.624Z,54.50
2018-06-01T03:25:11.866Z,54.00
2018-06-01T03:27:40.943Z,54.80
2018-06-01T03:30:09.235Z,54.90
2018-06-01T03:32:37.480Z,54.50
2018-06-01T03:35:05.774Z,55.00
2018-06-01T03:37:34.076Z,58.80
2018-06-01T03:40:03.132Z,56.30
2018-06-01T03:42:31.419Z,56.40
2018-06-01T03:44:59.724Z,56.50
2018-06-01T03:47:28.732Z,56.40
2018-06-01T03:49:57.003Z,56.40
2018-06-01T03:52:26.024Z,59.40
2018-06-01T03:54:54.329Z,59.30
2018-06-01T03:57:22.576Z,61.20
2018-06-01T03:59:50.862Z,64.60
2018-06-01T04:02:19.171Z,57.10
2018-06-01T04:04:47.448Z,56.60
2018-06-01T04:07:15.747Z,56.20
2018-06-01T04:09:44.003Z,56.00
2018-06-01T04:12:12.349Z,57.00
2018-06-01T04:14:40.622Z,66.10
2018-06-01T04:17:08.876Z,59.00
2018-06-01T04:19:37.116Z,65.40
2018-06-01T04:22:05.371Z,60.20
2018-06-01T04:24:33.670Z,62.30
2018-06-01T04:27:02.000Z,61.70
2018-06-01T04:29:30.294Z,67.00
2018-06-01T04:31:58.540Z,76.10
2018-06-01T04:34:26.859Z,76.00
2018-06-01T04:36:55.197Z,82.40
2018-06-01T04:39:24.250Z,79.00
2018-06-01T04:41:52.534Z,78.10
2018-06-01T04:44:20.831Z,81.70
2018-06-01T04:46:49.843Z,85.90
2018-06-01T04:49:18.471Z,85.90
2018-06-01T04:51:47.458Z,83.10
2018-06-01T04:54:15.767Z,83.50
2018-06-01T04:56:44.012Z,85.00
2018-06-01T04:59:12.264Z,81.00
2018-06-01T05:01:40.574Z,77.50
2018-06-01T05:04:08.814Z,75.60
2018-06-01T05:06:37.125Z,75.70
2018-06-01T05:09:06.245Z,69.40
2018-06-01T05:11:34.509Z,68.70
2018-06-01T05:14:02.817Z,68.50
2018-06-01T05:16:31.839Z,66.80
2018-06-01T05:19:00.092Z,71.70
2018-06-01T05:21:29.150Z,82.60
2018-06-01T05:23:57.410Z,84.00
2018-06-01T05:26:25.656Z,80.20
2018-06-01T05:28:54.751Z,68.20
2018-06-01T05:31:23.807Z,74.10
2018-06-01T05:33:52.072Z,73.80
2018-06-01T05:36:20.347Z,80.90
2018-06-01T05:38:48.632Z,79.70
2018-06-01T05:41:16.922Z,80.30
2018-06-01T05:43:46.699Z,77.40
2018-06-01T05:46:14.973Z,77.30
2018-06-01T05:48:43.232Z,76.40
2018-06-01T05:51:11.555Z,82.00
2018-06-01T05:53:39.916Z,80.30
2018-06-01T05:56:08.197Z,73.80
2018-06-01T05:58:36.523Z,73.80
2018-06-01T06:01:05.542Z,71.10
2018-06-01T06:03:33.839Z,73.10
2018-06-01T06:06:02.085Z,81.10
2018-06-01T06:08:30.393Z,72.10
2018-06-01T06:10:58.636Z,80.10
2018-06-01T06:13:27.674Z,67.70
2018-06-01T06:15:55.959Z,67.70
2018-06-01T06:18:24.192Z,78.00
2018-06-01T06:20:52.453Z,78.60
2018-06-01T06:23:21.822Z,66.90
2018-06-01T06:25:50.089Z,66.80
2018-06-01T06:28:18.331Z,73.20
2018-06-01T06:30:46.646Z,68.60
2018-06-01T06:33:14.922Z,79.30
2018-06-01T06:35:43.987Z,77.40
2018-06-01T06:38:12.250Z,77.40
2018-06-01T06:40:41.318Z,83.10
2018-06-01T06:43:09.602Z,83.10
2018-06-01T06:45:37.852Z,77.60
2018-06-01T06:48:06.099Z,76.90
2018-06-01T06:50:34.351Z,71.10
2018-06-01T06:53:02.695Z,78.90
2018-06-01T06:55:30.951Z,74.00
2018-06-01T06:57:59.297Z,70.30
2018-06-01T07:00:27.577Z,68.00
2018-06-01T07:02:55.889Z,73.80
2018-06-01T07:05:24.737Z,69.20
2018-06-01T07:07:53.051Z,74.00
2018-06-01T07:10:21.306Z,69.00
2018-06-01T07:12:49.645Z,71.80
2018-06-01T07:15:17.936Z,69.90
2018-06-01T07:17:46.993Z,74.40
2018-06-01T07:20:15.314Z,74.50
2018-06-01T07:22:44.588Z,69.00
2018-06-01T07:25:12.879Z,68.90
2018-06-01T07:27:41.162Z,68.30
2018-06-01T07:30:09.429Z,71.80
2018-06-01T07:32:37.705Z,71.10
2018-06-01T07:35:06.742Z,68.80
2018-06-01T07:37:35.092Z,68.50
2018-06-01T07:40:03.475Z,66.90
2018-06-01T07:42:33.235Z,65.10
2018-06-01T07:45:01.496Z,65.20
2018-06-01T07:47:30.662Z,65.00
2018-06-01T07:49:59.711Z,64.60
2018-06-01T07:52:27.978Z,64.50
2018-06-01T07:54:56.232Z,63.40
2018-06-01T07:57:24.542Z,65.40
2018-06-01T07:59:53.595Z,65.40
2018-06-01T08:02:21.897Z,65.30
2018-06-01T08:04:50.199Z,64.50
2018-06-01T08:07:18.492Z,66.50
2018-06-01T08:09:46.779Z,68.10
2018-06-01T08:12:15.220Z,69.60
2018-06-01T08:14:43.528Z,69.30
2018-06-01T08:17:11.781Z,68.20
2018-06-01T08:19:40.015Z,70.00
2018-06-01T08:22:08.327Z,71.00
2018-06-01T08:24:36.595Z,71.50
2018-06-01T08:27:04.907Z,71.80
2018-06-01T08:29:33.142Z,69.90
2018-06-01T08:32:01.425Z,68.90
2018-06-01T08:34:29.686Z,69.60
2018-06-01T08:36:57.962Z,66.60
2018-06-01T08:39:26.270Z,65.60
2018-06-01T08:41:54.566Z,65.10
2018-06-01T08:44:22.826Z,65.80
2018-06-01T08:46:51.115Z,65.10
2018-06-01T08:49:19.345Z,64.10
2018-06-01T08:51:47.645Z,65.10
2018-06-01T08:54:15.935Z,64.70
2018-06-01T08:56:45.568Z,64.60
2018-06-01T08:59:13.904Z,64.90
2018-06-01T09:01:43.176Z,63.50
2018-06-01T09:04:11.467Z,62.80
2018-06-01T09:06:39.740Z,63.10
2018-06-01T09:09:08.019Z,63.00
2018-06-01T09:11:36.399Z,62.60
2018-06-01T09:14:05.501Z,61.50
2018-06-01T09:16:33.792Z,61.50
2018-06-01T09:19:02.919Z,61.60
2018-06-01T09:21:31.228Z,61.20
2018-06-01T09:23:59.488Z,61.10
2018-06-01T09:26:27.744Z,60.90
2018-06-01T09:28:56.035Z,60.60
2018-06-01T09:31:24.305Z,60.20
2018-06-01T09:33:52.559Z,60.20
2018-06-01T09:36:20.850Z,61.20
2018-06-01T09:38:49.138Z,60.50
2018-06-01T09:41:17.781Z,60.10
2018-06-01T09:43:46.132Z,59.90
2018-06-01T09:46:14.380Z,59.90
2018-06-01T09:48:42.653Z,59.90
2018-06-01T09:51:10.915Z,60.90
2018-06-01T09:53:39.215Z,60.70
2018-06-01T09:56:07.470Z,60.10
2018-06-01T09:58:35.766Z,59.90
2018-06-01T10:01:09.948Z,59.50
2018-06-01T10:03:38.212Z,61.10
2018-06-01T10:06:06.502Z,61.20
2018-06-01T10:08:34.792Z,61.10
2018-06-01T10:11:09.064Z,60.70
2018-06-01T10:13:38.120Z,60.00
2018-06-01T10:16:06.740Z,59.90
2018-06-01T10:18:35.070Z,59.70
2018-06-01T10:21:03.344Z,59.50
2018-06-01T10:23:32.214Z,59.30
2018-06-01T10:26:00.553Z,58.70
2018-06-01T10:28:28.843Z,57.30
2018-06-01T10:30:57.081Z,59.10
2018-06-01T10:33:25.357Z,58.90
2018-06-01T10:35:53.642Z,59.00
2018-06-01T10:38:21.954Z,58.80
2018-06-01T10:40:50.963Z,58.50
2018-06-01T10:43:19.274Z,58.50
2018-06-01T10:45:47.556Z,58.70
2018-06-01T10:48:15.855Z,57.80
2018-06-01T10:50:44.145Z,58.60
2018-06-01T10:53:12.442Z,58.50
2018-06-01T10:55:41.513Z,58.30
2018-06-01T10:58:09.763Z,58.30
2018-06-01T11:00:38.036Z,58.20
2018-06-01T11:03:06.287Z,58.00
2018-06-01T11:05:34.564Z,57.90
2018-06-01T11:08:03.624Z,56.10
2018-06-01T11:10:32.040Z,57.20
2018-06-01T11:13:01.069Z,55.90
2018-06-01T11:15:29.912Z,55.00
2018-06-01T11:17:58.315Z,57.20
2018-06-01T11:23:02.490Z,55.80
2018-06-01T11:25:35.088Z,55.80
2018-06-01T11:28:04.881Z,56.60
2018-06-01T11:30:33.455Z,56.50
2018-06-01T11:33:02.827Z,54.30
2018-06-01T11:35:31.198Z,55.80
2018-06-01T11:37:59.515Z,56.00
2018-06-01T11:40:28.704Z,54.90
2018-06-01T11:42:56.994Z,54.00
2018-06-01T11:45:25.365Z,54.70
2018-06-01T11:47:53.660Z,54.90
2018-06-01T11:50:21.959Z,54.00
2018-06-01T11:52:50.467Z,50.80
2018-06-01T11:55:18.896Z,49.00
2018-06-01T11:57:47.212Z,52.10
2018-06-01T12:00:16.264Z,49.80
2018-06-01T12:02:44.559Z,49.80
2018-06-01T12:05:12.928Z,52.40
2018-06-01T12:07:41.228Z,50.60
2018-06-01T12:10:09.843Z,52.90
2018-06-01T12:12:38.141Z,53.30
2018-06-01T12:15:06.461Z,52.50
2018-06-01T12:17:34.788Z,52.80
2018-06-01T12:20:03.010Z,50.10
2018-06-01T12:22:31.360Z,47.50
2018-06-01T12:24:59.713Z,50.90
2018-06-01T12:27:27.942Z,51.30
2018-06-01T12:29:56.635Z,51.90
2018-06-01T12:32:24.921Z,51.00
2018-06-01T12:34:54.011Z,51.00
2018-06-01T12:37:22.265Z,50.70
2018-06-01T12:39:50.557Z,51.50
2018-06-01T12:42:18.901Z,50.10
2018-06-01T12:44:47.148Z,48.50
2018-06-01T12:47:15.558Z,48.30
2018-06-01T12:49:43.815Z,50.00
2018-06-01T12:52:12.089Z,50.20
2018-06-01T12:54:40.345Z,51.20
2018-06-01T12:57:09.370Z,48.20
2018-06-01T12:59:37.666Z,47.90
2018-06-01T13:02:05.938Z,48.40
2018-06-01T13:04:34.225Z,48.10
2018-06-01T13:07:02.519Z,45.90
2018-06-01T13:09:31.744Z,47.80
2018-06-01T13:12:00.051Z,47.70
2018-06-01T13:14:28.372Z,48.50
2018-06-01T13:16:56.674Z,48.60
2018-06-01T13:19:24.971Z,48.20
2018-06-01T13:21:54.123Z,49.40
2018-06-01T13:24:23.150Z,49.40
2018-06-01T13:26:52.200Z,45.70
2018-06-01T13:29:22.574Z,45.30
2018-06-01T13:31:52.392Z,47.60
2018-06-01T13:34:21.411Z,48.00
2018-06-01T13:36:50.565Z,47.90
2018-06-01T13:39:18.826Z,45.50
2018-06-01T13:41:47.149Z,47.80
2018-06-01T13:44:16.168Z,47.10
2018-06-01T13:46:45.249Z,47.10
2018-06-01T13:49:13.551Z,47.40
2018-06-01T13:51:41.871Z,47.60
2018-06-01T13:54:10.794Z,47.30
2018-06-01T13:56:39.135Z,47.10
2018-06-01T13:59:07.471Z,46.30
2018-06-01T14:01:35.742Z,46.70
2018-06-01T14:04:04.001Z,45.70
2018-06-01T14:06:32.331Z,41.90
2018-06-01T14:09:00.641Z,47.60
2018-06-01T14:11:29.687Z,46.50
2018-06-01T14:13:57.966Z,46.20
2018-06-01T14:16:26.270Z,48.30
2018-06-01T14:18:54.581Z,48.30
2018-06-01T14:21:22.899Z,47.70
2018-06-01T14:23:51.196Z,48.10
2018-06-01T14:26:19.453Z,46.80
2018-06-01T14:28:47.803Z,44.30
2018-06-01T14:31:16.824Z,41.60
2018-06-01T14:33:45.095Z,45.70
2018-06-01T14:36:13.364Z,47.60
2018-06-01T14:38:41.682Z,46.70
2018-06-01T14:41:09.976Z,45.70
2018-06-01T14:43:38.224Z,47.20
2018-06-01T14:46:07.299Z,47.10
2018-06-01T14:48:35.588Z,44.70
2018-06-01T14:51:03.935Z,47.40
2018-06-01T14:53:32.179Z,46.60
2018-06-01T14:56:00.496Z,41.20
2018-06-01T14:58:28.824Z,47.00
2018-06-01T15:00:57.560Z,45.90
2018-06-01T15:03:25.818Z,43.60
2018-06-01T15:05:54.866Z,45.00
2018-06-01T15:08:23.145Z,44.90
2018-06-01T15:10:51.396Z,43.90
2018-06-01T15:13:19.696Z,44.60
2018-06-01T15:15:47.945Z,44.80
2018-06-01T15:18:17.191Z,45.50
2018-06-01T15:20:45.494Z,41.40
2018-06-01T15:23:14.534Z,44.50
2018-06-01T15:25:42.896Z,44.40
2018-06-01T15:28:11.202Z,44.20
2018-06-01T15:30:39.559Z,42.60
2018-06-01T15:33:07.844Z,43.00
2018-06-01T15:35:36.139Z,43.20
2018-06-01T15:38:04.446Z,42.80
2018-06-01T15:40:32.785Z,43.60
2018-06-01T15:43:01.033Z,43.00
2018-06-01T15:45:29.315Z,44.20
2018-06-01T15:47:57.585Z,43.00
2018-06-01T15:50:25.899Z,43.20
2018-06-01T15:52:54.154Z,43.60
2018-06-01T15:55:23.019Z,41.40
2018-06-01T15:57:52.078Z,46.10
2018-06-01T16:00:20.393Z,46.10
2018-06-01T16:02:49.396Z,45.10
2018-06-01T16:05:17.642Z,45.10
2018-06-01T16:07:45.905Z,41.30
2018-06-01T16:10:14.278Z,45.40
2018-06-01T16:12:42.585Z,44.50
2018-06-01T16:15:10.783Z,44.40
2018-06-01T16:17:39.849Z,45.60
2018-06-01T16:20:08.131Z,45.60
2018-06-01T16:22:36.392Z,45.40
2018-06-01T16:25:04.685Z,45.60
2018-06-01T16:27:32.997Z,41.80
2018-06-01T16:30:01.283Z,42.50
2018-06-01T16:32:29.590Z,43.50
2018-06-01T16:34:57.879Z,43.30
2018-06-01T16:37:26.114Z,43.40
2018-06-01T16:39:54.417Z,40.20
2018-06-01T16:42:22.715Z,44.00
2018-06-01T16:44:51.026Z,42.80
2018-06-01T16:47:20.079Z,44.50
2018-06-01T16:49:48.389Z,44.60
2018-06-01T16:52:17.406Z,44.20
2018-06-01T16:54:45.671Z,44.20
2018-06-01T16:57:13.964Z,42.90
2018-06-01T16:59:42.233Z,43.90
2018-06-01T17:02:10.525Z,44.00
2018-06-01T17:04:38.806Z,44.30
2018-06-01T17:07:07.166Z,42.60
2018-06-01T17:09:35.417Z,41.60
2018-06-01T17:12:03.680Z,41.40
2018-06-01T17:14:32.002Z,39.90
2018-06-01T17:17:00.258Z,42.30
2018-06-01T17:19:29.294Z,41.10
2018-06-01T17:21:57.572Z,41.20
2018-06-01T17:24:25.811Z,43.10
2018-06-01T17:26:54.834Z,42.70
2018-06-01T17:29:23.149Z,42.70
2018-06-01T17:31:51.410Z,42.80
2018-06-01T17:34:19.673Z,43.10
2018-06-01T17:36:47.969Z,39.90
2018-06-01T17:39:16.967Z,43.40
2018-06-01T17:41:45.236Z,43.40
2018-06-01T17:44:13.540Z,43.30
2018-06-01T17:46:41.828Z,43.30
2018-06-01T17:49:10.081Z,43.10
2018-06-01T17:51:38.330Z,42.70
2018-06-01T17:54:06.616Z,43.50
2018-06-01T17:56:34.888Z,43.60
2018-06-01T17:59:03.183Z,44.00
2018-06-01T18:01:32.289Z,44.10
2018-06-01T18:04:00.537Z,44.20
2018-06-01T18:06:28.788Z,44.30
2018-06-01T18:08:57.107Z,44.10
2018-06-01T18:11:25.675Z,44.00
2018-06-01T18:13:53.954Z,43.70
2018-06-01T18:16:22.223Z,43.60
2018-06-01T18:18:50.551Z,44.40
2018-06-01T18:21:18.859Z,44.20
2018-06-01T18:23:47.166Z,44.20
2018-06-01T18:26:15.777Z,44.10
2018-06-01T18:28:44.404Z,44.50
2018-06-01T18:31:13.430Z,44.60
2018-06-01T18:33:41.726Z,44.60
2018-06-01T18:36:10.039Z,44.60
2018-06-01T18:38:38.293Z,44.70
2018-06-01T18:41:06.565Z,44.70
2018-06-01T18:43:35.098Z,44.50
2018-06-01T18:46:03.392Z,44.60
2018-06-01T18:48:31.716Z,44.70
2018-06-01T18:51:00.815Z,44.80
2018-06-01T18:53:29.071Z,44.70
2018-06-01T18:55:57.344Z,44.80
2018-06-01T18:58:25.624Z,44.90
2018-06-01T19:00:54.693Z,45.00
2018-06-01T19:03:22.967Z,45.00
2018-06-01T19:05:51.242Z,45.00
2018-06-01T19:08:19.515Z,45.10
2018-06-01T19:10:47.814Z,45.20
2018-06-01T19:13:16.060Z,45.40
2018-06-01T19:15:44.337Z,45.10
2018-06-01T19:18:13.372Z,45.50
2018-06-01T19:20:41.652Z,45.50
2018-06-01T19:23:09.959Z,46.00
2018-06-01T19:25:38.261Z,45.60
2018-06-01T19:28:07.271Z,45.50
2018-06-01T19:30:35.592Z,45.50
2018-06-01T19:33:03.891Z,45.50
2018-06-01T19:35:32.173Z,45.50
2018-06-01T19:38:01.227Z,46.20
2018-06-01T19:40:29.541Z,45.70
2018-06-01T19:42:57.788Z,46.00
2018-06-01T19:45:26.095Z,46.50
2018-06-01T19:47:54.395Z,45.90
2018-06-01T19:50:23.435Z,46.00
2018-06-01T19:52:51.681Z,46.00
2018-06-01T19:55:19.993Z,49.60
2018-06-01T19:57:48.256Z,47.50
2018-06-01T20:00:16.559Z,46.20
2018-06-01T20:02:44.807Z,46.10
2018-06-01T20:05:13.177Z,45.90
2018-06-01T20:07:41.442Z,46.10
2018-06-01T20:10:09.706Z,46.90
2018-06-01T20:12:38.740Z,46.40
2018-06-01T20:15:07.054Z,46.40
2018-06-01T20:17:35.370Z,46.70
2018-06-01T20:20:03.652Z,47.10
2018-06-01T20:22:31.923Z,47.90
2018-06-01T20:25:00.218Z,47.20
2018-06-01T20:27:28.478Z,46.50
2018-06-01T20:29:56.741Z,46.40
2018-06-01T20:32:25.017Z,46.50
2018-06-01T20:34:53.338Z,47.20
2018-06-01T20:37:21.595Z,46.80
2018-06-01T20:39:49.867Z,47.20
2018-06-01T20:42:18.113Z,46.90
2018-06-01T20:44:47.152Z,47.70
2018-06-01T20:47:15.391Z,47.60
2018-06-01T20:49:44.426Z,47.60
2018-06-01T20:52:12.732Z,47.60
2018-06-01T20:54:41.902Z,46.90
2018-06-01T20:57:10.159Z,47.70
2018-06-01T20:59:38.414Z,49.10
2018-06-01T21:02:06.716Z,48.60
2018-06-01T21:04:34.958Z,47.20
2018-06-01T21:07:03.267Z,47.90
2018-06-01T21:09:31.484Z,49.80
2018-06-01T21:11:59.787Z,49.60
2018-06-01T21:14:28.038Z,48.60
2018-06-01T21:16:56.884Z,49.10
2018-06-01T21:19:25.969Z,50.40
2018-06-01T21:21:55.014Z,49.90
2018-06-01T21:24:24.203Z,49.70
2018-06-01T21:26:52.511Z,48.70
2018-06-01T21:29:20.804Z,48.80
2018-06-01T21:31:49.094Z,49.20
2018-06-01T21:34:18.147Z,49.90
2018-06-01T21:36:46.903Z,49.90
2018-06-01T21:39:15.183Z,48.30
2018-06-01T21:41:43.537Z,49.40
2018-06-01T21:44:12.597Z,50.30
2018-06-01T21:46:40.909Z,50.20
2018-06-01T21:49:09.208Z,50.00
2018-06-01T21:51:37.569Z,51.10
2018-06-01T21:54:05.856Z,49.10
2018-06-01T21:56:34.903Z,49.50
2018-06-01T21:59:03.177Z,49.40
2018-06-01T22:01:31.424Z,48.90
2018-06-01T22:03:59.686Z,48.80
2018-06-01T22:06:27.937Z,49.50
2018-06-01T22:08:56.963Z,49.40
2018-06-01T22:11:25.210Z,48.80
2018-06-01T22:13:55.226Z,48.70
2018-06-01T22:16:24.240Z,48.50
2018-06-01T22:18:52.624Z,48.50
2018-06-01T22:21:20.883Z,49.00
2018-06-01T22:23:49.900Z,50.20
2018-06-01T22:26:18.205Z,50.80
2018-06-01T22:28:46.453Z,48.50
2018-06-01T22:31:15.048Z,48.50
2018-06-01T22:33:43.324Z,50.80
2018-06-01T22:36:11.633Z,51.60
2018-06-01T22:38:39.919Z,50.90
2018-06-01T22:41:08.251Z,55.90
2018-06-01T22:43:36.567Z,50.90
2018-06-01T22:46:04.911Z,49.70
2018-06-01T22:48:33.198Z,49.30
2018-06-01T22:51:01.537Z,49.80
2018-06-01T22:53:29.847Z,49.20
2018-06-01T22:55:58.094Z,50.80
2018-06-01T22:58:26.364Z,49.60
2018-06-01T23:00:55.427Z,49.80
2018-06-01T23:03:23.672Z,49.80
2018-06-01T23:05:51.972Z,49.80
2018-06-01T23:08:20.263Z,49.40
2018-06-01T23:10:48.551Z,52.60
2018-06-01T23:13:16.843Z,57.90
2018-06-01T23:15:45.135Z,54.20
2018-06-01T23:18:14.152Z,52.70
2018-06-01T23:20:42.436Z,52.70
2018-06-01T23:23:10.727Z,53.90
2018-06-01T23:25:39.028Z,52.70
2018-06-01T23:28:07.275Z,55.50
2018-06-01T23:30:35.530Z,51.30
2018-06-01T23:33:03.858Z,54.10
2018-06-01T23:35:32.155Z,52.40
2018-06-01T23:38:00.428Z,51.00
2018-06-01T23:40:28.711Z,53.00
2018-06-01T23:42:56.994Z,50.80
2018-06-01T23:45:25.302Z,57.30
2018-06-01T23:47:53.608Z,59.40
2018-06-01T23:50:21.907Z,64.10
2018-06-01T23:52:50.243Z,53.90
2018-06-01T23:55:18.543Z,52.40
2018-06-01T23:57:46.844Z,54.70
